createdAt,value
2022-10-28T00:03:28.058Z,7.61
2022-10-28T00:13:28.000Z,7.71
2022-10-28T00:23:28.033Z,7.52
2022-10-28T00:33:28.008Z,7.37
2022-10-28T00:43:28.017Z,7.33
2022-10-28T00:53:28.004Z,7.35
2022-10-28T01:03:28.019Z,7.18
2022-10-28T01:13:27.996Z,7.18
2022-10-28T01:23:28.032Z,7.06
2022-10-28T01:33:28.007Z,7
2022-10-28T01:43:28.035Z,6.98
2022-10-28T01:53:27.987Z,6.84
2022-10-28T02:03:28.009Z,7.09
2022-10-28T02:13:27.990Z,6.98
2022-10-28T02:23:28.178Z,6.64
2022-10-28T02:33:27.988Z,6.85
2022-10-28T02:43:28.080Z,6.75
2022-10-28T02:53:28.019Z,6.66
2022-10-28T03:03:28.007Z,6.71
2022-10-28T03:13:27.986Z,6.77
2022-10-28T03:23:28.037Z,6.61
2022-10-28T03:33:27.973Z,6.34
2022-10-28T03:43:27.996Z,6.25
2022-10-28T03:53:31.134Z,6.47
2022-10-28T04:03:27.995Z,6.31
2022-10-28T04:13:27.964Z,6.22
2022-10-28T04:23:28.017Z,6.28
2022-10-28T04:33:27.971Z,6.15
2022-10-28T04:43:28.010Z,6.27
2022-10-28T04:53:27.984Z,6.3
2022-10-28T05:03:28.056Z,6.23
2022-10-28T05:13:27.978Z,6.23
2022-10-28T05:23:30.743Z,6.24
2022-10-28T05:33:27.956Z,5.97
2022-10-28T05:43:28.004Z,5.86
2022-10-28T05:53:27.975Z,5.96
2022-10-28T06:03:30.010Z,6.08
2022-10-28T06:13:26.452Z,6.28
2022-10-28T06:23:26.443Z,6.55
2022-10-28T06:33:26.439Z,6.48
2022-10-28T06:43:26.489Z,6.73
2022-10-28T06:53:27.970Z,6.87
2022-10-28T07:03:28.004Z,7.27
2022-10-28T07:13:28.014Z,7.57
2022-10-28T07:23:28.019Z,7.77
2022-10-28T07:33:28.002Z,8.15
2022-10-28T07:43:28.033Z,8.68
2022-10-28T07:53:28.750Z,9.19
2022-10-28T08:03:34.628Z,9.45
2022-10-28T08:13:27.965Z,10.05
2022-10-28T08:23:27.961Z,10.79
2022-10-28T08:33:27.937Z,11.23
2022-10-28T08:43:40.201Z,11.82
2022-10-28T08:53:27.924Z,12.07
2022-10-28T09:03:27.955Z,12.91
2022-10-28T09:13:27.893Z,13.25
2022-10-28T09:23:27.916Z,13.64
2022-10-28T09:33:28.031Z,13.99
2022-10-28T09:43:27.902Z,14.63
2022-10-28T09:53:28.007Z,15.42
2022-10-28T10:03:27.918Z,15.67
2022-10-28T10:13:27.905Z,16.63
2022-10-28T10:23:27.915Z,17
2022-10-28T10:33:27.840Z,17.46
2022-10-28T10:43:27.868Z,18.29
2022-10-28T10:53:27.818Z,18.76
2022-10-28T11:03:27.843Z,19.07
2022-10-28T11:13:27.956Z,19.26
2022-10-28T11:23:27.809Z,18.9
2022-10-28T11:33:30.298Z,17.82
2022-10-28T11:43:27.816Z,17.33
2022-10-28T11:53:27.789Z,17.41
2022-10-28T12:03:27.810Z,17.37
2022-10-28T12:13:27.775Z,17.47
2022-10-28T12:23:27.775Z,17.46
2022-10-28T12:33:27.738Z,17.54
2022-10-28T12:43:27.872Z,17.73
2022-10-28T12:53:27.725Z,17.79
2022-10-28T13:03:27.742Z,17.95
2022-10-28T13:13:27.744Z,18.23
2022-10-28T13:23:27.735Z,18.23
2022-10-28T13:33:27.674Z,18.3
2022-10-28T13:43:27.718Z,18.45
2022-10-28T13:53:27.714Z,18.45
2022-10-28T14:03:27.843Z,18.45
2022-10-28T14:13:28.360Z,18.49
2022-10-28T14:23:27.686Z,18.39
2022-10-28T14:33:27.643Z,18.26
2022-10-28T14:43:29.384Z,18.16
2022-10-28T14:53:27.629Z,18.16
2022-10-28T15:03:27.660Z,18.01
2022-10-28T15:13:27.603Z,17.71
2022-10-28T15:23:27.712Z,17.03
2022-10-28T15:43:27.659Z,15.59
2022-10-28T15:53:27.594Z,15.02
2022-10-28T16:03:27.620Z,14.33
2022-10-28T16:13:27.548Z,13.86
2022-10-28T16:23:27.596Z,13.35
2022-10-28T16:33:27.556Z,12.98
2022-10-28T16:43:27.568Z,12.62
2022-10-28T16:53:27.553Z,12.23
2022-10-28T17:03:27.584Z,11.83
2022-10-28T17:13:27.553Z,11.54
2022-10-28T17:23:27.581Z,11.43
2022-10-28T17:33:27.506Z,11.28
2022-10-28T17:43:27.543Z,11.04
2022-10-28T17:53:27.517Z,10.9
2022-10-28T18:03:27.560Z,10.72
2022-10-28T18:13:27.517Z,10.64
2022-10-28T18:23:27.544Z,10.55
2022-10-28T18:33:27.515Z,10.4
2022-10-28T18:43:27.514Z,10.2
2022-10-28T18:53:27.497Z,10.03
2022-10-28T19:03:27.505Z,10.01
2022-10-28T19:13:27.521Z,9.95
2022-10-28T19:23:27.485Z,9.65
2022-10-28T19:33:27.480Z,9.53
2022-10-28T19:43:27.505Z,9.47
2022-10-28T19:53:27.466Z,9.47
2022-10-28T20:03:29.526Z,9.35
2022-10-28T20:13:27.490Z,9.15
2022-10-28T20:23:27.503Z,9.05
2022-10-28T20:33:27.473Z,9.1
2022-10-28T20:43:27.471Z,8.89
2022-10-28T20:53:27.465Z,8.61
2022-10-28T21:03:27.477Z,8.52
2022-10-28T21:13:27.437Z,8.51
2022-10-28T21:23:27.482Z,8.7
2022-10-28T21:33:27.445Z,8.48
2022-10-28T21:43:27.458Z,8.36
2022-10-28T21:53:27.440Z,8.48
2022-10-28T22:03:27.447Z,8.54
2022-10-28T22:13:27.416Z,8.36
2022-10-28T22:33:27.459Z,8.09
2022-10-28T22:43:27.433Z,8.21
2022-10-28T22:53:27.438Z,8.17
2022-10-28T23:03:27.436Z,7.96
2022-10-28T23:13:27.521Z,8.26
2022-10-28T23:23:27.412Z,8.06
2022-10-28T23:33:27.433Z,7.78
2022-10-28T23:43:27.397Z,7.7
